Time;durP1;ratioP1;P1;durP2;ratioP2;P2;SDS_P1;SDS_P2;PMS_P1;PMS_P2;Temp;Humidity;BMP_temperature;BMP_pressure;BME280_temperature;BME280_humidity;BME280_pressure;Samples;Min_cycle;Max_cycle;Signal;HPM_P1;HPM_P2
2022/05/04 00:02:12;;;;;;;17.57;11.33;;;;;;;8.37;64.99;98925.69;2262221;79;20915;-81
2022/05/04 00:05:12;;;;;;;14.77;10.97;;;;;;;8.37;64.81;98931.31;2261354;79;20919;-81
2022/05/04 00:08:13;;;;;;;28.23;17.47;;;;;;;8.33;64.91;98929.46;2261806;79;20903;-81
2022/05/04 00:11:13;;;;;;;62.90;46.03;;;;;;;8.34;68.53;98938.62;2262380;79;20919;-82
2022/05/04 00:14:13;;;;;;;54.10;41.03;;;;;;;10.46;72.26;98936.05;2262174;79;21275;-81
2022/05/04 00:17:14;;;;;;;34.27;21.77;;;;;;;11.61;62.80;98936.52;2262376;79;20880;-81
2022/05/04 00:20:14;;;;;;;18.67;15.17;;;;;;;11.03;60.77;98948.95;2262409;79;20855;-82
2022/05/04 00:23:15;;;;;;;251.27;33.17;;;;;;;10.48;60.60;98961.31;2260602;78;21306;-83
2022/05/04 00:26:15;;;;;;;24.10;14.37;;;;;;;9.99;61.21;98956.15;2259304;79;20952;-82
2022/05/04 00:29:16;;;;;;;21.67;12.13;;;;;;;9.70;62.09;98956.98;2259167;78;20990;-82
2022/05/04 00:32:17;;;;;;;18.47;11.67;;;;;;;9.50;62.75;98952.27;2259080;79;20976;-83
2022/05/04 00:35:16;;;;;;;418.40;135.40;;;;;;;9.34;63.04;98959.78;2259244;79;20947;-83
2022/05/04 00:38:17;;;;;;;220.03;68.03;;;;;;;9.21;63.64;98963.45;2258944;79;20916;-81
2022/05/04 00:41:17;;;;;;;126.40;46.90;;;;;;;9.14;64.12;98964.19;2259116;79;20931;-81
2022/05/04 00:44:18;;;;;;;38.90;18.50;;;;;;;9.05;64.44;98965.73;2258912;79;21348;-82
2022/05/04 00:47:18;;;;;;;28.90;14.87;;;;;;;8.90;64.61;98968.91;2258605;79;20959;-82
2022/05/04 00:50:18;;;;;;;24.47;14.17;;;;;;;8.76;65.00;98969.92;2259050;79;20974;-83
2022/05/04 00:53:19;;;;;;;64.57;18.07;;;;;;;8.54;65.26;98971.16;2259505;79;20876;-85
2022/05/04 00:56:19;;;;;;;153.47;57.60;;;;;;;8.39;65.80;98969.52;2259160;79;21302;-83
2022/05/04 00:59:19;;;;;;;42.37;20.23;;;;;;;8.36;66.14;98975.08;2259311;79;20955;-82
2022/05/04 01:02:20;;;;;;;33.37;19.13;;;;;;;8.26;66.11;98972.66;2259127;79;20907;-83
2022/05/04 01:05:20;;;;;;;28.50;16.60;;;;;;;8.31;67.55;98977.12;2259118;79;20986;-82
2022/05/04 01:08:21;;;;;;;41.20;20.70;;;;;;;8.29;67.65;98981.41;2259177;79;20864;-82
2022/05/04 01:11:21;;;;;;;77.07;58.03;;;;;;;8.44;72.93;98978.73;2259016;79;21290;-82
2022/05/04 01:14:21;;;;;;;87.83;68.50;;;;;;;10.56;73.95;98974.47;2259043;79;20915;-82
2022/05/04 01:17:22;;;;;;;34.63;26.83;;;;;;;12.37;68.45;98958.54;2259267;79;20947;-82
2022/05/04 01:20:24;;;;;;;28.67;17.87;;;;;;;11.83;60.45;98957.23;2259148;79;20892;-82
2022/05/04 01:23:23;;;;;;;82.40;60.53;;;;;;;10.68;59.99;98968.10;2259014;78;20951;-82
2022/05/04 01:26:23;;;;;;;129.20;93.70;;;;;;;10.78;69.41;98970.41;2259382;79;20918;-83
2022/05/04 01:29:23;;;;;;;166.47;122.47;;;;;;;12.64;67.53;98963.94;2259020;79;20930;-82
2022/05/04 01:32:24;;;;;;;47.17;35.33;;;;;;;13.96;64.40;98965.28;2259076;79;20970;-82
2022/05/04 01:35:24;;;;;;;65.33;31.43;;;;;;;14.80;61.21;98959.97;2259337;79;20960;-83
2022/05/04 01:38:25;;;;;;;60.63;37.33;;;;;;;15.52;57.85;98959.17;2259265;79;20880;-82
2022/05/04 01:44:44;;;;;;;20.05;13.93;;;;;;;15.23;50.52;98969.86;2259297;78;20975;-81
2022/05/04 01:47:44;;;;;;;16.57;12.87;;;;;;;13.20;50.50;98976.48;2259044;79;20951;-83
2022/05/04 01:50:45;;;;;;;22.60;13.70;;;;;;;11.66;52.33;98986.24;2259002;79;20907;-84
2022/05/04 01:53:45;;;;;;;19.77;12.87;;;;;;;10.67;54.72;98988.97;2258837;79;20963;-84
2022/05/04 01:56:45;;;;;;;20.67;12.30;;;;;;;10.01;56.40;98992.26;2259076;79;20884;-83
2022/05/04 01:59:46;;;;;;;155.50;26.77;;;;;;;9.49;58.00;98985.69;2258794;79;21003;-82
2022/05/04 02:02:46;;;;;;;23.03;15.23;;;;;;;9.08;59.33;98984.90;2259204;79;20935;-84
2022/05/04 02:05:47;;;;;;;22.37;14.00;;;;;;;8.76;60.44;98985.55;2258898;79;21283;-84
2022/05/04 02:08:47;;;;;;;144.87;22.30;;;;;;;8.55;61.62;98985.05;2259558;79;20895;-83
2022/05/04 02:11:47;;;;;;;48.47;15.97;;;;;;;8.41;62.43;98990.36;2259208;79;20971;-82
2022/05/04 02:14:48;;;;;;;106.03;19.67;;;;;;;8.29;63.17;98987.91;2259011;79;21286;-82
2022/05/04 02:17:48;;;;;;;25.53;14.27;;;;;;;8.21;63.96;98980.77;2259626;79;21264;-82
2022/05/04 02:20:48;;;;;;;35.97;14.47;;;;;;;8.13;64.44;98977.99;2259958;79;21325;-83
2022/05/04 02:23:49;;;;;;;19.73;13.00;;;;;;;8.06;65.00;98973.49;2260728;78;20931;-84
2022/05/04 02:26:49;;;;;;;24.33;14.20;;;;;;;8.04;65.33;98977.78;2262600;79;20943;-83
2022/05/04 02:29:50;;;;;;;45.03;29.77;;;;;;;8.02;65.72;98975.56;2262082;79;21405;-83
2022/05/04 02:32:50;;;;;;;33.13;15.67;;;;;;;8.00;66.07;98972.05;2262114;79;20943;-84
2022/05/04 02:39:09;;;;;;;23.97;15.63;;;;;;;7.99;66.58;98977.66;2262317;78;20990;-82
2022/05/04 02:42:10;;;;;;;16.73;13.43;;;;;;;8.02;66.96;98978.16;2262373;79;20947;-83
2022/05/04 02:45:10;;;;;;;17.83;12.77;;;;;;;7.99;67.08;98978.97;2262185;79;21278;-83
2022/05/04 02:48:11;;;;;;;20.60;13.67;;;;;;;8.01;67.11;98991.12;2260981;79;20926;-83
2022/05/04 02:51:11;;;;;;;22.73;13.47;;;;;;;8.06;67.49;98989.09;2262150;79;20993;-83
2022/05/04 02:54:12;;;;;;;19.37;12.63;;;;;;;8.06;67.73;98987.80;2261103;79;20988;-83
2022/05/04 02:57:12;;;;;;;20.03;12.90;;;;;;;8.03;67.74;98986.42;2261664;79;20891;-83
2022/05/04 03:00:13;;;;;;;19.47;12.50;;;;;;;7.98;67.96;98985.01;2262381;79;20907;-83
2022/05/04 03:03:13;;;;;;;16.30;12.47;;;;;;;7.97;68.25;98990.17;2262303;79;20892;-85
2022/05/04 03:06:14;;;;;;;17.60;11.83;;;;;;;7.97;68.32;98991.47;2262663;79;20942;-84
2022/05/04 03:09:14;;;;;;;26.77;15.70;;;;;;;7.99;68.48;98988.06;2260455;79;20990;-84
2022/05/04 03:12:14;;;;;;;45.97;23.80;;;;;;;8.02;68.44;98995.48;2260033;79;21002;-83
2022/05/04 03:15:15;;;;;;;65.87;30.27;;;;;;;8.04;68.56;99000.30;2261115;79;20943;-84
2022/05/04 03:18:15;;;;;;;20.33;14.00;;;;;;;8.07;68.74;98999.95;2261387;79;21334;-84
2022/05/04 03:21:16;;;;;;;18.73;12.87;;;;;;;8.08;68.71;99000.41;2261319;79;20934;-85
2022/05/04 03:24:16;;;;;;;18.03;12.83;;;;;;;8.07;68.82;99003.84;2249692;77;20991;-84
2022/05/04 03:27:16;;;;;;;22.37;12.67;;;;;;;8.11;68.88;99000.90;2240256;79;20995;-83
2022/05/04 03:30:17;;;;;;;24.17;12.90;;;;;;;8.08;68.93;99001.70;2241020;79;20999;-82
2022/05/04 03:33:17;;;;;;;21.10;12.40;;;;;;;8.11;69.20;99004.80;2241274;79;21287;-83
2022/05/04 03:36:17;;;;;;;156.47;20.77;;;;;;;8.13;69.07;99007.89;2241922;79;20975;-84
2022/05/04 03:39:19;;;;;;;39.47;16.17;;;;;;;8.15;69.10;99010.53;2207234;79;21119;-83
2022/05/04 03:42:19;;;;;;;84.23;37.90;;;;;;;8.15;69.16;99014.02;2241002;79;20959;-84
2022/05/04 03:45:20;;;;;;;95.43;39.57;;;;;;;8.19;69.22;99019.74;2239409;79;21241;-83
2022/05/04 03:48:20;;;;;;;69.93;19.27;;;;;;;8.25;69.14;99019.89;2239428;79;20908;-83
2022/05/04 03:51:20;;;;;;;22.33;13.90;;;;;;;8.26;69.15;99021.64;2239541;79;20913;-83
2022/05/04 03:54:21;;;;;;;17.63;12.87;;;;;;;8.29;69.24;99021.72;2241116;79;20912;-83
2022/05/04 03:57:21;;;;;;;19.90;12.83;;;;;;;8.35;69.43;99022.31;2239894;79;21061;-84
2022/05/04 04:00:22;;;;;;;17.33;12.20;;;;;;;8.44;69.56;99022.95;2240357;79;21007;-82
2022/05/04 04:03:22;;;;;;;16.63;12.03;;;;;;;8.51;69.51;99023.13;2241509;79;20872;-82
2022/05/04 04:06:22;;;;;;;16.77;11.87;;;;;;;8.60;69.46;99027.66;2241471;79;20868;-84
2022/05/04 04:09:26;;;;;;;232.80;26.00;;;;;;;8.71;69.51;99023.60;2240999;79;20983;-83
2022/05/04 04:12:26;;;;;;;22.03;12.10;;;;;;;8.83;69.54;99026.89;2240168;79;20943;-82
2022/05/04 04:15:26;;;;;;;15.20;12.00;;;;;;;8.93;69.80;99030.15;2240304;79;20987;-83
2022/05/04 04:18:27;;;;;;;48.87;25.67;;;;;;;9.04;69.58;99033.86;2239563;79;21358;-83
2022/05/04 04:24:46;;;;;;;18.60;12.30;;;;;;;9.34;69.09;99030.99;2247518;78;20975;-83
2022/05/04 04:27:46;;;;;;;30.17;18.43;;;;;;;9.55;68.94;99035.77;2252384;79;21017;-84
2022/05/04 04:30:47;;;;;;;25.20;14.30;;;;;;;9.69;68.44;99036.91;2252681;79;21623;-82
2022/05/04 04:33:47;;;;;;;24.03;14.43;;;;;;;9.82;67.91;99030.18;2252135;79;20965;-83
2022/05/04 04:36:48;;;;;;;40.33;23.27;;;;;;;10.02;67.39;99031.40;2253113;78;21029;-83
2022/05/04 04:39:48;;;;;;;57.40;29.57;;;;;;;10.21;67.34;99036.53;2254075;79;20981;-84
2022/05/04 04:42:49;;;;;;;60.33;32.83;;;;;;;10.36;67.03;99039.81;2254062;79;21006;-82
2022/05/04 04:45:49;;;;;;;64.77;19.87;;;;;;;10.44;66.58;99044.33;2253281;79;21291;-81
2022/05/04 04:48:50;;;;;;;54.10;15.20;;;;;;;10.52;66.15;99044.02;2253348;79;20946;-82
2022/05/04 04:51:50;;;;;;;17.97;12.43;;;;;;;10.60;65.84;99045.86;2253163;79;20990;-81
2022/05/04 04:54:50;;;;;;;136.80;19.13;;;;;;;10.64;65.96;99045.93;2252185;79;21334;-81
2022/05/04 04:57:51;;;;;;;140.73;19.50;;;;;;;10.62;65.73;99050.67;2251673;79;20970;-82
2022/05/04 05:00:51;;;;;;;20.77;12.40;;;;;;;10.59;65.79;99053.24;2252046;79;21105;-81
2022/05/04 05:03:51;;;;;;;21.10;12.57;;;;;;;10.57;66.21;99054.52;2252651;79;20923;-82
2022/05/04 05:06:52;;;;;;;21.57;13.40;;;;;;;10.58;66.31;99057.58;2252311;79;20990;-81
2022/05/04 05:09:52;;;;;;;22.53;11.93;;;;;;;10.69;66.16;99057.75;2253183;79;20995;-81
2022/05/04 05:12:53;;;;;;;15.80;11.87;;;;;;;11.01;65.55;99060.81;2253191;79;21397;-77
2022/05/04 05:16:08;;;;;;;15.80;12.50;;;;;;;11.31;64.74;99064.28;2252678;79;20966;-80
2022/05/04 05:19:09;;;;;;;17.17;13.00;;;;;;;11.66;64.38;99059.45;2251905;78;21037;-79
2022/05/04 05:22:09;;;;;;;26.47;13.17;;;;;;;12.11;63.17;99067.80;2252542;79;21001;-80
2022/05/04 05:25:10;;;;;;;16.70;11.12;;;;;;;12.47;62.44;99066.38;2247186;79;20932;-79
2022/05/04 05:28:10;;;;;;;15.55;11.22;;;;;;;12.78;61.29;99071.84;2245068;79;21307;-77
2022/05/04 05:31:10;;;;;;;23.38;12.88;;;;;;;12.90;60.73;99071.92;2244912;79;21321;-82
2022/05/04 05:34:11;;;;;;;16.20;12.00;;;;;;;12.95;61.07;99071.51;2246618;79;20923;-81
2022/05/04 05:37:11;;;;;;;14.83;11.73;;;;;;;13.03;60.90;99076.39;2246598;79;20911;-83
2022/05/04 05:40:12;;;;;;;22.40;12.70;;;;;;;13.14;60.64;99066.84;2245924;79;21030;-82
2022/05/04 05:43:12;;;;;;;15.18;11.80;;;;;;;13.24;60.19;99076.97;2246771;79;20974;-82
2022/05/04 05:46:12;;;;;;;14.58;11.95;;;;;;;13.34;59.69;99076.14;2246081;79;20970;-81
2022/05/04 05:49:13;;;;;;;14.20;11.40;;;;;;;13.50;59.21;99075.77;2245824;79;20939;-82
2022/05/04 05:52:13;;;;;;;17.30;11.15;;;;;;;13.71;58.64;99075.84;2245718;79;20948;-81
2022/05/04 05:55:14;;;;;;;18.27;10.90;;;;;;;13.98;57.92;99076.38;2246388;79;21006;-83
2022/05/04 05:58:14;;;;;;;16.02;10.25;;;;;;;14.31;57.49;99072.48;2246896;79;20963;-81
2022/05/04 06:01:14;;;;;;;14.07;9.75;;;;;;;14.50;56.60;99069.45;2246311;79;21046;-81
2022/05/04 06:04:16;;;;;;;12.78;9.30;;;;;;;14.60;55.95;99071.20;2245938;79;20991;-83
2022/05/04 06:07:15;;;;;;;10.25;7.10;;;;;;;14.57;55.36;99071.20;2246468;79;20916;-82
2022/05/04 06:10:16;;;;;;;11.48;7.67;;;;;;;14.57;54.52;99076.45;2246960;79;20998;-83
2022/05/04 06:13:16;;;;;;;9.80;7.17;;;;;;;14.69;54.37;99072.94;2247285;79;20955;-82
2022/05/04 06:16:16;;;;;;;16.52;7.53;;;;;;;14.86;54.17;99075.58;2246374;79;21302;-82
2022/05/04 06:19:17;;;;;;;16.45;7.30;;;;;;;15.32;53.97;99075.45;2245410;79;21018;-82
2022/05/04 06:22:17;;;;;;;20.88;8.20;;;;;;;15.51;53.09;99074.50;2245033;79;20978;-81
2022/05/04 06:25:18;;;;;;;13.93;7.10;;;;;;;15.57;52.91;99075.79;2244955;78;21002;-81
2022/05/04 06:28:18;;;;;;;8.30;6.62;;;;;;;15.79;52.01;99084.52;2245608;79;20994;-83
2022/05/04 06:41:43;;;;;;;51.85;7.72;;;;;;;16.87;48.08;99070.59;2246031;78;20955;-82
2022/05/04 06:44:43;;;;;;;17.87;6.25;;;;;;;17.00;47.10;99076.16;2245664;79;20954;-84
2022/05/04 06:47:44;;;;;;;7.37;4.80;;;;;;;17.18;47.00;99074.65;2246421;79;21021;-83
2022/05/04 06:50:44;;;;;;;52.83;6.75;;;;;;;17.44;45.78;99077.47;2246296;79;20974;-85
2022/05/04 06:53:44;;;;;;;5.33;4.35;;;;;;;17.72;42.99;99073.61;2246671;79;20923;-78
2022/05/04 06:56:45;;;;;;;7.80;4.15;;;;;;;17.72;42.37;99077.58;2245674;79;20955;-82
2022/05/04 06:59:45;;;;;;;14.10;5.22;;;;;;;17.47;42.09;99074.78;2245570;79;20915;-85
2022/05/04 07:02:45;;;;;;;9.10;4.55;;;;;;;17.28;43.41;99075.86;2245708;79;20955;-83
2022/05/04 07:05:46;;;;;;;45.40;7.58;;;;;;;17.37;42.66;99077.98;2246177;78;20947;-82
2022/05/04 07:08:46;;;;;;;8.60;4.25;;;;;;;17.68;43.17;99077.19;2245800;79;20942;-83
2022/05/04 07:11:47;;;;;;;8.78;4.67;;;;;;;18.28;41.77;99082.53;2246344;79;21311;-83
2022/05/04 07:14:47;;;;;;;14.53;5.17;;;;;;;18.57;41.08;99083.83;2245826;79;20951;-82
2022/05/04 07:17:48;;;;;;;5.97;4.40;;;;;;;18.92;41.50;99085.45;2245873;79;20994;-80
2022/05/04 07:20:48;;;;;;;13.75;4.85;;;;;;;19.41;40.08;99084.55;2247007;79;21410;-82
2022/05/04 07:23:48;;;;;;;10.63;4.47;;;;;;;19.61;40.24;99085.50;2246207;78;21008;-84
2022/05/04 07:26:49;;;;;;;6.45;4.35;;;;;;;19.87;39.51;99088.92;2247094;79;20903;-83
2022/05/04 07:29:49;;;;;;;5.75;3.72;;;;;;;20.09;38.42;99086.25;2247349;79;20963;-83
2022/05/04 07:32:50;;;;;;;8.50;3.90;;;;;;;20.34;36.94;99091.40;2247029;79;21034;-83
2022/05/04 07:35:50;;;;;;;8.30;3.95;;;;;;;20.23;36.45;99092.10;2246406;79;21041;-82
2022/05/04 07:38:50;;;;;;;7.60;3.40;;;;;;;20.07;36.87;99088.06;2246867;79;20912;-85
2022/05/04 07:45:12;;;;;;;5.60;4.37;;;;;;;19.96;37.65;99092.73;2246886;78;21433;-83
2022/05/04 07:48:10;;;;;;;11.78;4.90;;;;;;;19.75;36.94;99091.83;2247247;79;20974;-83
2022/05/04 07:51:11;;;;;;;4.90;3.37;;;;;;;19.81;37.78;99097.88;2246565;79;20966;-85
2022/05/04 07:54:12;;;;;;;12.88;3.85;;;;;;;20.14;35.74;99092.31;2246716;79;21381;-83
2022/05/04 07:57:12;;;;;;;7.05;3.30;;;;;;;20.20;34.30;99095.27;2247119;79;21033;-84
2022/05/04 08:06:50;;;;;;;3.75;2.95;;;;;;;20.56;34.08;99091.78;2246495;78;20944;-84
2022/05/04 08:09:50;;;;;;;2.58;2.22;;;;;;;20.81;32.34;99090.75;2246090;79;21407;-82
2022/05/04 08:12:51;;;;;;;7.20;2.67;;;;;;;20.85;31.30;99093.73;2246343;79;20970;-84
2022/05/04 08:15:51;;;;;;;3.25;2.60;;;;;;;20.88;30.73;99098.97;2246521;79;20959;-83
2022/05/04 08:18:51;;;;;;;4.47;2.12;;;;;;;20.90;30.82;99097.59;2247190;79;21450;-83
2022/05/04 08:21:52;;;;;;;9.53;2.87;;;;;;;21.22;30.41;99097.65;2246370;79;20911;-81
2022/05/04 08:24:52;;;;;;;4.17;2.70;;;;;;;21.29;30.45;99094.37;2247075;78;20970;-81
2022/05/04 08:27:53;;;;;;;3.40;2.75;;;;;;;21.12;30.42;99108.52;2246623;79;21294;-81
2022/05/04 08:30:53;;;;;;;4.17;2.60;;;;;;;21.09;30.76;99105.95;2247190;79;21043;-81
2022/05/04 08:33:54;;;;;;;4.17;2.83;;;;;;;21.13;30.64;99108.48;2247342;79;21023;-82
2022/05/04 08:36:54;;;;;;;2.85;2.37;;;;;;;21.39;30.90;99102.50;2248024;79;20907;-83
2022/05/04 08:40:00;;;;;;;10.60;3.30;;;;;;;21.81;30.68;99104.41;2248071;79;21017;-82
2022/05/04 08:43:02;;;;;;;8.93;3.20;;;;;;;22.07;30.22;99110.31;2247204;79;20974;-83
2022/05/04 08:46:05;;;;;;;7.25;3.58;;;;;;;22.53;30.06;99108.41;2247308;79;20959;-83
2022/05/04 08:49:05;;;;;;;;;;;;;;;23.06;29.70;99111.59;2249574;79;20923;-82
2022/05/04 08:52:06;;;;;;;5.45;3.72;;;;;;;23.06;28.40;99111.59;2247364;79;20132;-82
2022/05/04 08:55:06;;;;;;;6.72;3.22;;;;;;;22.80;28.93;99112.02;2248003;79;20979;-82
2022/05/04 08:58:08;;;;;;;6.20;3.70;;;;;;;22.79;29.21;99110.24;2225424;79;21405;-82
2022/05/04 09:01:08;;;;;;;5.95;3.77;;;;;;;22.61;28.89;99114.84;2247375;79;20970;-85
2022/05/04 09:04:09;;;;;;;14.95;3.87;;;;;;;22.31;28.90;99111.80;2246658;79;21081;-83
2022/05/04 09:07:09;;;;;;;5.78;3.40;;;;;;;21.89;29.59;99114.81;2246107;79;21689;-82
2022/05/04 09:10:09;;;;;;;108.17;10.32;;;;;;;21.66;30.08;99107.94;2246668;79;20931;-82
2022/05/04 09:13:10;;;;;;;14.73;4.10;;;;;;;21.60;30.38;99104.55;2247553;79;21023;-83
2022/05/04 09:16:10;;;;;;;7.33;3.55;;;;;;;21.61;30.38;99108.94;2247279;79;20990;-84
2022/05/04 09:19:11;;;;;;;5.05;3.52;;;;;;;22.22;30.18;99103.65;2247687;79;20911;-84
2022/05/04 09:22:11;;;;;;;5.72;4.20;;;;;;;22.37;29.17;99100.97;2248440;79;20963;-83
2022/05/04 09:25:16;;;;;;;8.75;4.08;;;;;;;22.08;29.83;99102.75;2246752;79;21061;-83
2022/05/04 09:28:14;;;;;;;6.10;3.40;;;;;;;22.07;30.02;99099.67;2247332;79;21014;-82
2022/05/04 09:31:18;;;;;;;7.20;3.50;;;;;;;22.40;29.46;99098.20;2246625;79;20987;-84
2022/05/04 09:34:15;;;;;;;6.33;3.37;;;;;;;22.43;29.36;99100.31;2246368;79;21026;-85
2022/05/04 09:47:12;;;;;;;8.13;4.17;;;;;;;21.82;29.45;99101.30;2246278;78;21033;-81
2022/05/04 09:50:12;;;;;;;13.58;4.42;;;;;;;21.65;29.95;99091.59;2246649;79;20931;-79
2022/05/04 09:53:14;;;;;;;20.57;5.17;;;;;;;21.76;30.17;99099.69;2246889;79;20982;-81
2022/05/04 09:56:13;;;;;;;19.90;5.10;;;;;;;21.94;30.13;99094.29;2245666;79;20974;-82
2022/05/04 09:59:14;;;;;;;7.20;4.20;;;;;;;22.19;30.01;99089.98;2246019;79;20954;-84
2022/05/04 10:02:15;;;;;;;23.80;5.10;;;;;;;22.47;29.91;99093.10;2247114;79;20991;-84
2022/05/04 10:05:16;;;;;;;7.17;3.70;;;;;;;22.56;28.66;99091.05;2246468;79;21331;-82
2022/05/04 10:08:15;;;;;;;11.50;4.10;;;;;;;22.21;29.18;99092.14;2246158;79;20985;-84
2022/05/04 10:11:16;;;;;;;3.50;3.10;;;;;;;22.22;29.29;99096.55;2246917;79;21041;-83
2022/05/04 10:14:16;;;;;;;8.73;3.70;;;;;;;22.36;29.45;99100.55;2245076;79;21346;-80
2022/05/04 10:17:18;;;;;;;6.15;4.05;;;;;;;22.55;29.10;99099.95;2245920;78;20963;-78
2022/05/04 10:20:18;;;;;;;10.58;4.40;;;;;;;22.63;28.81;99098.36;2244975;79;20957;-83
2022/05/04 10:23:18;;;;;;;5.53;3.60;;;;;;;22.72;28.60;99088.75;2245488;79;21001;-84
2022/05/04 10:26:18;;;;;;;7.62;3.70;;;;;;;22.78;28.51;99088.55;2251859;79;21038;-82
2022/05/04 10:32:37;;;;;;;25.08;4.90;;;;;;;22.94;28.11;99082.73;2261000;78;21340;-83
2022/05/04 10:35:38;;;;;;;31.57;5.92;;;;;;;22.98;28.17;99079.04;2260149;79;20977;-84
2022/05/04 10:38:38;;;;;;;7.55;4.03;;;;;;;22.94;27.75;99082.27;2260010;79;21326;-86
2022/05/04 10:41:39;;;;;;;4.30;3.62;;;;;;;22.90;27.97;99077.97;2260763;79;21341;-84
2022/05/04 10:44:39;;;;;;;6.83;3.42;;;;;;;23.06;28.14;99084.97;2259855;79;21008;-85
2022/05/04 10:47:39;;;;;;;7.40;3.30;;;;;;;23.21;27.53;99080.43;2260036;79;20922;-85
2022/05/04 10:50:40;;;;;;;30.72;4.92;;;;;;;23.16;27.41;99079.27;2260242;79;20996;-85
2022/05/04 10:53:40;;;;;;;8.43;4.15;;;;;;;23.22;27.57;99076.84;2261035;79;21025;-82
2022/05/04 10:56:41;;;;;;;6.00;3.83;;;;;;;23.15;27.22;99075.33;2260182;79;21325;-82
2022/05/04 10:59:41;;;;;;;11.93;3.70;;;;;;;23.36;27.54;99068.36;2260009;79;20966;-82
2022/05/04 11:02:42;;;;;;;9.30;4.17;;;;;;;23.73;26.69;99069.25;2259468;79;21276;-77
2022/05/04 11:05:42;;;;;;;11.68;3.27;;;;;;;24.07;26.51;99068.83;2258023;79;21489;-80
2022/05/04 11:08:43;;;;;;;11.03;4.15;;;;;;;24.39;26.11;99071.60;2259279;79;20974;-78
2022/05/04 11:11:43;;;;;;;9.53;4.10;;;;;;;24.83;25.70;99063.55;2257851;79;20954;-77
2022/05/04 11:14:43;;;;;;;9.73;4.08;;;;;;;25.02;25.13;99053.38;2259040;79;21342;-78
2022/05/04 11:17:44;;;;;;;5.58;4.08;;;;;;;25.07;25.56;99056.72;2257824;79;20947;-78
2022/05/04 11:20:44;;;;;;;5.92;3.40;;;;;;;25.17;25.21;99054.55;2256698;79;20994;-77
2022/05/04 11:23:45;;;;;;;5.97;3.22;;;;;;;25.28;25.17;99051.39;2257377;79;21345;-77
2022/05/04 11:26:45;;;;;;;5.08;3.90;;;;;;;25.32;25.04;99061.88;2255881;79;20974;-77
2022/05/04 11:29:45;;;;;;;4.53;4.12;;;;;;;24.98;25.46;99060.25;2255675;79;20969;-78
2022/05/04 11:32:47;;;;;;;9.45;3.98;;;;;;;24.63;25.18;99059.92;2254544;79;22126;-78
2022/05/04 11:35:47;;;;;;;5.83;3.98;;;;;;;24.20;25.43;99062.08;2254279;79;20967;-77
2022/05/04 11:38:48;;;;;;;6.12;3.55;;;;;;;23.90;25.75;99061.95;2255266;79;20935;-76
2022/05/04 11:41:48;;;;;;;9.88;3.80;;;;;;;23.69;25.52;99060.97;2254515;79;21010;-77
2022/05/04 11:44:48;;;;;;;4.92;3.85;;;;;;;23.51;26.20;99063.83;2254844;79;21021;-78
2022/05/04 11:47:49;;;;;;;4.80;3.85;;;;;;;23.20;26.55;99064.05;2254166;79;20935;-78
2022/05/04 11:50:54;;;;;;;5.58;3.80;;;;;;;23.02;26.84;99061.58;2256978;79;21445;-79
2022/05/04 11:53:52;;;;;;;4.53;3.90;;;;;;;22.75;26.73;99061.16;2235486;79;21002;-77
2022/05/04 11:56:52;;;;;;;23.12;4.42;;;;;;;22.55;27.14;99065.83;2253805;79;21011;-78
2022/05/04 11:59:52;;;;;;;22.87;17.20;;;;;;;22.56;27.50;99064.44;2254039;79;20974;-77
2022/05/04 12:02:53;;;;;;;14.65;4.65;;;;;;;23.04;27.28;99055.73;2253449;79;21029;-78
2022/05/04 12:05:53;;;;;;;31.10;18.10;;;;;;;23.31;26.10;99050.34;2254651;79;21006;-77
2022/05/04 12:08:54;;;;;;;111.72;12.80;;;;;;;23.37;26.58;99048.78;2252897;79;20970;-77
2022/05/04 12:11:54;;;;;;;12.00;5.10;;;;;;;23.77;26.39;99048.22;2253026;79;21022;-78
2022/05/04 12:14:54;;;;;;;22.10;5.15;;;;;;;23.69;26.44;99048.98;2252715;79;21398;-77
2022/05/04 12:17:55;;;;;;;5.03;3.75;;;;;;;23.72;25.88;99048.40;2252677;79;21022;-77
2022/05/04 12:20:55;;;;;;;7.60;3.87;;;;;;;23.36;26.00;99050.58;2253130;79;21030;-79
2022/05/04 12:23:55;;;;;;;4.25;3.47;;;;;;;22.98;26.41;99045.77;2252665;79;20990;-77
2022/05/04 12:26:56;;;;;;;14.23;5.30;;;;;;;22.62;26.62;99044.74;2254124;79;21022;-78
2022/05/04 12:33:15;;;;;;;4.20;3.00;;;;;;;22.52;27.39;99040.63;2256099;78;20971;-79
2022/05/04 12:36:16;;;;;;;3.45;3.15;;;;;;;22.62;27.24;99035.44;2255578;79;21053;-80
2022/05/04 12:39:16;;;;;;;8.93;4.08;;;;;;;22.80;27.45;99040.62;2257261;79;20974;-83
2022/05/04 12:42:19;;;;;;;4.40;3.45;;;;;;;22.94;27.04;99034.36;2259464;79;21025;-83
2022/05/04 12:45:21;;;;;;;5.55;3.87;;;;;;;22.94;27.11;99028.16;2203285;79;21418;-83
2022/05/04 12:48:21;;;;;;;7.10;3.90;;;;;;;22.79;26.81;99029.08;2259378;79;20984;-80
2022/05/04 12:51:21;;;;;;;4.87;3.20;;;;;;;22.60;27.39;99026.63;2260100;79;20990;-82
2022/05/04 12:54:22;;;;;;;7.28;3.72;;;;;;;22.57;27.21;99022.75;2259383;79;21322;-80
2022/05/04 12:57:22;;;;;;;4.17;3.42;;;;;;;22.47;27.66;99021.28;2259680;79;20971;-81
2022/05/04 13:00:23;;;;;;;15.10;3.83;;;;;;;22.40;27.67;99018.42;2260040;79;20994;-80
2022/05/04 13:03:23;;;;;;;15.32;4.30;;;;;;;22.43;27.59;99018.32;2259365;79;20975;-81
2022/05/04 13:06:24;;;;;;;35.20;6.30;;;;;;;22.48;27.54;99016.38;2259053;78;20990;-83
2022/05/04 13:09:24;;;;;;;5.75;3.72;;;;;;;22.74;27.44;99019.05;2260151;79;20950;-80
2022/05/04 13:15:27;;;;;;;5.30;3.70;;;;;;;23.03;26.87;99014.06;2173685;81;21014;-82
2022/05/04 13:18:27;;;;;;;8.58;4.30;;;;;;;23.28;26.91;99010.05;2173312;82;21070;-82
2022/05/04 13:21:28;;;;;;;4.45;3.45;;;;;;;23.32;26.65;99010.80;2173214;82;21023;-80
2022/05/04 13:24:28;;;;;;;66.47;7.08;;;;;;;23.60;25.82;99006.70;2172943;82;20955;-78
2022/05/04 13:27:28;;;;;;;5.00;3.50;;;;;;;23.74;25.84;99001.23;2179570;80;21418;-82
2022/05/04 13:30:29;;;;;;;7.58;3.65;;;;;;;24.00;25.65;98995.34;2185672;81;20963;-81
2022/05/04 13:33:31;;;;;;;4.08;3.67;;;;;;;24.11;25.45;98995.30;2186329;81;21090;-83
2022/05/04 13:36:29;;;;;;;8.70;4.53;;;;;;;23.90;25.24;98989.51;2186414;81;21507;-82
2022/05/04 13:39:30;;;;;;;11.33;4.50;;;;;;;23.81;25.68;98979.21;2187631;81;21010;-83
2022/05/04 13:42:30;;;;;;;7.45;5.00;;;;;;;23.75;25.47;98984.78;2188233;81;20971;-82
2022/05/04 13:45:31;;;;;;;25.85;7.87;;;;;;;23.41;25.84;98988.71;2185820;81;21101;-80
2022/05/04 13:48:31;;;;;;;12.53;5.12;;;;;;;22.95;26.25;98981.98;2185487;81;20967;-82
2022/05/04 13:54:50;;;;;;;125.87;11.95;;;;;;;22.80;26.41;98984.73;2186485;81;20994;-80
2022/05/04 13:57:51;;;;;;;7.58;3.50;;;;;;;22.79;27.02;98985.16;2186888;81;21000;-84
2022/05/04 14:00:51;;;;;;;4.28;3.33;;;;;;;22.67;26.74;98986.92;2187207;81;21055;-82
2022/05/04 14:03:51;;;;;;;4.53;3.50;;;;;;;22.26;27.11;98989.63;2186594;81;20991;-82
2022/05/04 14:06:52;;;;;;;6.78;2.95;;;;;;;22.19;27.32;98980.98;2186086;81;20993;-82
2022/05/04 14:09:52;;;;;;;14.45;3.50;;;;;;;22.24;27.15;98982.16;2186632;81;21039;-82
2022/05/04 14:12:53;;;;;;;26.48;15.63;;;;;;;22.15;27.29;98989.98;2241577;79;21037;-81
2022/05/04 14:16:00;;;;;;;10.10;6.33;;;;;;;22.04;27.75;98988.13;2255965;79;21365;-81
2022/05/04 14:18:59;;;;;;;46.35;6.03;;;;;;;21.92;27.42;98984.50;2256992;79;21013;-82
2022/05/04 14:22:00;;;;;;;13.05;3.67;;;;;;;21.72;27.92;98985.59;2256970;79;20958;-82
2022/05/04 14:25:01;;;;;;;47.80;13.80;;;;;;;21.68;28.12;98982.16;2257964;79;21221;-81
2022/05/04 14:28:01;;;;;;;27.60;6.70;;;;;;;21.68;28.62;98978.63;2251020;79;20935;-82
2022/05/04 14:31:01;;;;;;;5.87;3.20;;;;;;;21.62;28.25;98979.66;2247717;79;20978;-82
2022/05/04 14:34:01;;;;;;;7.15;3.42;;;;;;;21.62;28.63;98977.87;2247671;79;21082;-83
2022/05/04 14:37:02;;;;;;;13.85;3.83;;;;;;;21.48;28.62;98982.73;2248056;79;20928;-82
2022/05/04 14:40:02;;;;;;;36.08;4.60;;;;;;;21.43;28.72;98989.96;2248794;78;20932;-81
2022/05/04 14:43:03;;;;;;;6.65;3.10;;;;;;;21.42;28.67;98986.89;2247718;79;21322;-81
2022/05/04 14:46:04;;;;;;;6.85;3.40;;;;;;;21.46;28.99;98988.55;2247262;79;20970;-81
2022/05/04 14:49:03;;;;;;;3.60;2.90;;;;;;;21.55;29.35;98988.72;2246865;79;21044;-82
2022/05/04 14:52:06;;;;;;;7.65;3.00;;;;;;;21.50;28.57;98987.53;2223796;79;20999;-82
2022/05/04 14:55:06;;;;;;;6.45;3.00;;;;;;;21.55;28.77;98975.45;2246072;79;20968;-81